Time;durP1;ratioP1;P1;durP2;ratioP2;P2;SDS_P1;SDS_P2;PMS_P1;PMS_P2;Temp;Humidity;BMP_temperature;BMP_pressure;BME280_temperature;BME280_humidity;BME280_pressure;Samples;Min_cycle;Max_cycle;Signal;HPM_P1;HPM_P2
2022/05/05 00:01:29;;;;;;;3.83;3.42;;;;;;;20.45;45.06;97080.50;5013822;28;20014;-31
2022/05/05 00:03:55;;;;;;;4.50;3.25;;;;;;;20.34;45.17;97075.53;5013343;28;20048;-30
2022/05/05 00:06:21;;;;;;;4.90;3.80;;;;;;;20.39;45.14;97074.91;5013706;28;20022;-33
2022/05/05 00:08:46;;;;;;;4.53;3.80;;;;;;;20.43;45.11;97066.44;5013562;28;20049;-31
2022/05/05 00:16:40;;;;;;;3.92;3.53;;;;;;;20.39;45.28;97065.88;5013655;28;20033;-33
2022/05/05 00:19:06;;;;;;;4.55;3.45;;;;;;;20.32;45.47;97069.75;5013183;28;20396;-31
2022/05/05 00:21:31;;;;;;;4.40;4.00;;;;;;;20.35;45.67;97060.56;5014670;28;20018;-31
2022/05/05 00:23:57;;;;;;;4.45;3.60;;;;;;;20.40;45.53;97065.38;5032246;28;20058;-31
2022/05/05 00:26:22;;;;;;;4.13;3.70;;;;;;;20.37;45.65;97058.09;5017363;28;20460;-31
2022/05/05 00:28:48;;;;;;;4.05;3.65;;;;;;;20.31;45.82;97059.97;5017264;28;20030;-32
2022/05/05 00:31:13;;;;;;;5.28;4.30;;;;;;;20.35;45.64;97049.53;5017003;28;20034;-31
2022/05/05 00:33:39;;;;;;;4.32;3.92;;;;;;;20.33;45.74;97049.22;5017021;28;20018;-35
2022/05/05 00:36:05;;;;;;;7.30;4.00;;;;;;;20.33;45.78;97043.72;5016874;28;20022;-31
2022/05/05 00:38:30;;;;;;;5.07;3.80;;;;;;;20.34;45.56;97041.72;5016939;28;20087;-31
2022/05/05 00:40:56;;;;;;;5.20;3.85;;;;;;;20.33;45.76;97035.44;5016825;28;20022;-31
2022/05/05 00:43:23;;;;;;;4.53;4.10;;;;;;;20.32;45.92;97038.69;5016855;28;20028;-31
2022/05/05 00:45:49;;;;;;;4.53;4.13;;;;;;;20.34;45.77;97036.97;5016625;28;20044;-31
2022/05/05 00:48:16;;;;;;;4.80;4.03;;;;;;;20.27;45.87;97042.88;5016372;28;20399;-31
2022/05/05 00:50:42;;;;;;;5.30;4.05;;;;;;;20.29;45.77;97043.13;5016510;28;20113;-31
2022/05/05 00:53:08;;;;;;;6.03;4.38;;;;;;;20.30;45.53;97043.91;5016754;28;20053;-31
2022/05/05 00:55:37;;;;;;;5.57;4.35;;;;;;;20.35;45.51;97044.03;5016616;28;20030;-31
2022/05/05 00:58:03;;;;;;;6.25;4.05;;;;;;;20.34;45.44;97041.72;5016973;28;20084;-31
2022/05/05 01:00:31;;;;;;;6.78;4.15;;;;;;;20.30;45.72;97039.16;5016312;28;20093;-31
2022/05/05 01:02:59;;;;;;;4.57;4.18;;;;;;;20.34;45.64;97027.94;5016619;28;20022;-31
2022/05/05 01:05:27;;;;;;;5.25;3.97;;;;;;;20.34;45.56;97023.19;5016514;28;20101;-31
2022/05/05 01:07:56;;;;;;;5.85;4.60;;;;;;;20.26;45.76;97029.59;5016354;28;20018;-31
2022/05/05 01:10:22;;;;;;;6.05;4.25;;;;;;;20.27;45.87;97031.88;5016539;28;20464;-31
2022/05/05 01:12:48;;;;;;;5.80;4.43;;;;;;;20.31;45.60;97034.41;5016199;28;20079;-32
2022/05/05 01:15:13;;;;;;;8.25;4.18;;;;;;;20.28;45.41;97038.88;5016493;28;20053;-31
2022/05/05 01:17:45;;;;;;;5.45;4.32;;;;;;;20.31;45.12;97032.41;5016492;28;20025;-34
2022/05/05 01:20:19;;;;;;;6.30;4.03;;;;;;;20.30;45.21;97041.16;5016103;28;20523;-31
2022/05/05 01:22:45;;;;;;;5.45;4.47;;;;;;;20.26;45.33;97030.34;5016067;28;20045;-32
2022/05/05 01:28:14;;;;;;;6.60;4.38;;;;;;;20.25;45.38;97042.59;5016213;28;20518;-32
2022/05/05 01:30:44;;;;;;;5.70;4.60;;;;;;;20.20;45.60;97043.25;5015963;28;20018;-32
2022/05/05 01:33:13;;;;;;;5.53;4.47;;;;;;;20.21;45.30;97042.00;5014835;28;20108;-32
2022/05/05 01:35:39;;;;;;;5.55;4.28;;;;;;;20.28;45.22;97043.59;5015743;28;20468;-31
2022/05/05 01:38:07;;;;;;;5.82;4.60;;;;;;;20.20;45.33;97043.25;5030991;28;20037;-31
2022/05/05 01:40:33;;;;;;;5.07;4.18;;;;;;;20.20;45.37;97046.00;5016019;28;20049;-30
2022/05/05 01:42:59;;;;;;;5.00;4.00;;;;;;;20.25;45.33;97045.34;5015711;28;20100;-31
2022/05/05 01:45:24;;;;;;;5.60;4.65;;;;;;;20.20;45.52;97042.47;5014769;28;20475;-31
2022/05/05 01:47:50;;;;;;;6.32;4.90;;;;;;;20.17;45.43;97038.69;5013496;28;20046;-31
2022/05/05 01:50:15;;;;;;;4.90;4.38;;;;;;;20.17;45.14;97041.44;5012743;28;20387;-31
2022/05/05 01:52:41;;;;;;;6.07;4.60;;;;;;;20.19;45.06;97047.22;5015631;28;20037;-31
2022/05/05 01:55:07;;;;;;;4.57;4.13;;;;;;;20.16;45.14;97039.91;5015489;28;20022;-31
2022/05/05 01:57:32;;;;;;;5.57;4.38;;;;;;;20.16;45.05;97028.91;5015359;28;20022;-31
2022/05/05 02:00:00;;;;;;;5.72;4.32;;;;;;;20.12;45.32;97027.59;5015409;28;20017;-31
2022/05/05 02:02:26;;;;;;;5.30;4.57;;;;;;;20.15;45.29;97029.41;5015339;28;20392;-32
2022/05/05 02:04:52;;;;;;;5.78;4.05;;;;;;;20.13;45.33;97016.09;5015358;28;20029;-32
2022/05/05 02:07:17;;;;;;;5.43;4.50;;;;;;;20.18;45.27;97031.19;5015204;28;20022;-31
2022/05/05 02:09:43;;;;;;;4.60;4.20;;;;;;;20.12;45.22;97011.81;5015424;28;20026;-30
2022/05/05 02:12:09;;;;;;;5.68;4.28;;;;;;;20.16;45.20;97014.38;5015006;28;20029;-31
2022/05/05 02:14:34;;;;;;;4.90;3.95;;;;;;;20.13;45.08;97018.84;5015448;28;20453;-31
2022/05/05 02:17:00;;;;;;;4.85;4.30;;;;;;;20.11;45.20;97018.56;5014973;28;20068;-31
2022/05/05 02:19:25;;;;;;;4.80;3.80;;;;;;;20.11;45.08;97024.06;5015133;28;20041;-31
2022/05/05 02:21:51;;;;;;;4.47;3.78;;;;;;;20.11;45.11;97029.59;5014985;28;20511;-32
2022/05/05 02:24:16;;;;;;;5.85;4.00;;;;;;;20.07;45.18;97035.28;5014983;28;20084;-32
2022/05/05 02:26:42;;;;;;;6.65;4.20;;;;;;;20.08;44.98;97038.78;5014757;28;20026;-31
2022/05/05 02:29:07;;;;;;;4.68;4.18;;;;;;;20.11;45.19;97046.09;5014835;28;20061;-30
2022/05/05 02:31:32;;;;;;;5.28;4.07;;;;;;;20.11;45.25;97061.88;5014931;28;20052;-31
2022/05/05 02:33:58;;;;;;;5.65;4.47;;;;;;;20.10;45.10;97061.09;5014797;28;20468;-32
2022/05/05 02:39:08;;;;;;;6.35;4.45;;;;;;;20.07;45.25;97064.78;5014720;28;20048;-32
2022/05/05 02:41:33;;;;;;;5.10;4.20;;;;;;;20.05;45.29;97064.50;5014688;28;20022;-31
2022/05/05 02:43:59;;;;;;;5.93;4.22;;;;;;;20.01;45.38;97063.94;5014324;28;20025;-30
2022/05/05 02:46:24;;;;;;;6.40;4.28;;;;;;;20.00;45.37;97065.19;5014496;28;20034;-31
2022/05/05 02:48:50;;;;;;;5.00;4.50;;;;;;;20.05;45.73;97078.28;5014406;28;20046;-31
2022/05/05 02:51:15;;;;;;;4.80;4.20;;;;;;;20.03;45.50;97067.72;5014409;28;20128;-31
2022/05/05 02:56:25;;;;;;;5.30;4.35;;;;;;;20.03;45.55;97056.72;5014689;28;20071;-31
2022/05/05 02:58:53;;;;;;;6.20;4.88;;;;;;;20.02;45.52;97055.22;5014401;28;20026;-31
2022/05/05 03:01:18;;;;;;;5.55;4.93;;;;;;;20.00;45.62;97049.44;5014412;28;20384;-31
2022/05/05 03:03:44;;;;;;;6.25;4.47;;;;;;;19.95;45.57;97050.06;5014216;28;20025;-30
2022/05/05 03:06:10;;;;;;;5.78;4.47;;;;;;;19.96;45.62;97067.34;5013973;28;20442;-31
2022/05/05 03:08:35;;;;;;;5.03;4.25;;;;;;;19.96;45.68;97061.84;5029414;28;20071;-30
2022/05/05 03:11:01;;;;;;;6.30;4.28;;;;;;;20.00;45.53;97065.19;5013685;28;20392;-31
2022/05/05 03:13:26;;;;;;;6.93;4.25;;;;;;;19.91;45.75;97057.00;5014120;28;20025;-31
2022/05/05 03:15:52;;;;;;;5.38;4.28;;;;;;;19.98;45.59;97064.91;5014124;28;20483;-31
2022/05/05 03:18:17;;;;;;;4.53;4.13;;;;;;;19.99;45.48;97061.66;5014057;28;20053;-31
2022/05/05 03:20:43;;;;;;;6.40;4.50;;;;;;;19.98;45.47;97056.63;5013754;28;20424;-31
2022/05/05 03:23:08;;;;;;;5.63;4.45;;;;;;;19.97;45.46;97057.88;5014443;28;20022;-30
2022/05/05 03:25:34;;;;;;;6.38;3.95;;;;;;;20.06;45.45;97049.50;5013955;28;20018;-30
2022/05/05 03:27:59;;;;;;;5.68;4.50;;;;;;;20.02;45.46;97048.97;5013941;28;20025;-31
2022/05/05 03:30:25;;;;;;;4.50;4.10;;;;;;;20.00;45.48;97034.91;5014003;28;20396;-31
2022/05/05 03:32:50;;;;;;;5.68;4.43;;;;;;;19.99;45.50;97042.41;5013932;28;20115;-31
2022/05/05 03:35:17;;;;;;;5.88;4.40;;;;;;;19.98;45.56;97048.38;5013610;28;20053;-32
2022/05/05 03:37:42;;;;;;;5.10;3.97;;;;;;;19.93;45.64;97049.03;5013901;28;20029;-31
2022/05/05 03:40:08;;;;;;;9.20;5.32;;;;;;;19.95;45.64;97039.06;5013744;28;20030;-31
2022/05/05 03:42:33;;;;;;;4.70;4.00;;;;;;;19.92;45.70;97044.75;5013647;28;20014;-30
2022/05/05 03:45:00;;;;;;;5.60;4.30;;;;;;;19.94;45.57;97043.03;5013729;28;20025;-31
2022/05/05 03:47:25;;;;;;;7.03;4.30;;;;;;;19.92;45.76;97042.75;5013589;28;20036;-31
2022/05/05 03:49:51;;;;;;;6.25;3.75;;;;;;;19.91;45.74;97037.72;5013621;28;20030;-31
2022/05/05 03:52:17;;;;;;;5.18;4.22;;;;;;;19.91;45.72;97034.97;5013439;28;20476;-30
2022/05/05 03:54:43;;;;;;;4.97;4.32;;;;;;;19.90;45.86;97036.22;5013522;28;20069;-31
2022/05/05 03:57:08;;;;;;;5.25;3.83;;;;;;;19.89;45.81;97043.72;5012967;28;20074;-31
2022/05/05 03:59:34;;;;;;;5.72;4.25;;;;;;;19.91;45.67;97038.47;5013480;28;20029;-30
2022/05/05 04:01:59;;;;;;;5.55;4.30;;;;;;;19.91;45.74;97043.22;5013468;28;20028;-31
2022/05/05 04:04:25;;;;;;;5.30;4.15;;;;;;;19.89;45.75;97046.47;5013551;28;20369;-30
2022/05/05 04:06:51;;;;;;;4.65;3.88;;;;;;;19.96;45.57;97059.09;5013517;28;20068;-31
2022/05/05 04:09:16;;;;;;;6.70;4.35;;;;;;;19.93;45.71;97046.28;5028737;28;20022;-32
2022/05/05 04:11:42;;;;;;;5.72;4.38;;;;;;;19.89;45.90;97051.22;5013549;28;20029;-31
2022/05/05 04:14:07;;;;;;;5.43;4.03;;;;;;;19.87;45.88;97045.44;5013549;28;20502;-31
2022/05/05 04:16:33;;;;;;;5.38;3.80;;;;;;;19.85;45.94;97040.38;5013462;28;20029;-32
2022/05/05 04:19:01;;;;;;;4.80;3.92;;;;;;;19.86;45.96;97041.16;5013150;28;20026;-31
2022/05/05 04:21:27;;;;;;;5.78;4.38;;;;;;;19.88;45.65;97030.44;5013438;28;20030;-32
2022/05/05 04:23:52;;;;;;;5.93;4.57;;;;;;;19.88;45.77;97033.19;5013334;28;20021;-31
2022/05/05 04:26:19;;;;;;;5.07;4.25;;;;;;;19.92;45.71;97033.75;5013416;28;20029;-31
2022/05/05 04:28:48;;;;;;;8.70;4.72;;;;;;;19.98;45.53;97032.63;5013269;28;20060;-31
2022/05/05 04:31:15;;;;;;;5.47;4.15;;;;;;;19.89;45.66;97040.97;5013022;28;20034;-30
2022/05/05 04:33:41;;;;;;;6.65;4.30;;;;;;;19.88;45.91;97049.69;5013321;28;20032;-31
2022/05/05 04:36:07;;;;;;;3.88;3.47;;;;;;;19.85;45.96;97062.41;5013070;28;20035;-30
2022/05/05 04:38:33;;;;;;;4.80;4.30;;;;;;;19.83;45.82;97073.13;5013264;28;20072;-31
2022/05/05 04:41:00;;;;;;;4.93;4.20;;;;;;;19.85;46.02;97070.66;5013062;28;20419;-31
2022/05/05 04:43:25;;;;;;;6.05;3.90;;;;;;;19.82;46.11;97063.34;5012986;28;20041;-31
2022/05/05 04:45:50;;;;;;;6.50;4.30;;;;;;;19.87;45.93;97061.94;5012982;28;20025;-31
2022/05/05 04:48:16;;;;;;;8.18;4.13;;;;;;;19.86;45.97;97063.94;5013001;28;20050;-31
2022/05/05 04:50:42;;;;;;;7.78;4.20;;;;;;;19.91;45.89;97049.50;5012859;28;20030;-31
2022/05/05 04:53:07;;;;;;;6.55;4.30;;;;;;;19.91;45.85;97043.22;5024641;28;20443;-31
2022/05/05 04:55:33;;;;;;;5.22;4.22;;;;;;;19.88;45.94;97038.69;5011114;28;20022;-31
2022/05/05 04:57:59;;;;;;;5.10;4.03;;;;;;;19.89;45.91;97040.22;5010973;28;20791;-31
2022/05/05 05:00:24;;;;;;;7.28;4.25;;;;;;;19.83;46.23;97033.84;5011042;28;20026;-32
2022/05/05 05:02:50;;;;;;;4.22;3.63;;;;;;;19.83;46.13;97037.34;5011029;28;20017;-31
2022/05/05 05:05:15;;;;;;;4.63;3.85;;;;;;;19.84;46.07;97038.88;5010629;28;20559;-31
2022/05/05 05:07:41;;;;;;;6.57;4.38;;;;;;;19.84;46.21;97046.38;5012370;28;20068;-31
2022/05/05 05:10:07;;;;;;;4.28;3.75;;;;;;;19.84;46.18;97063.63;5014600;28;20029;-31
2022/05/05 05:12:33;;;;;;;5.43;4.30;;;;;;;19.86;46.12;97072.19;5014347;28;20140;-31
2022/05/05 05:14:59;;;;;;;5.43;4.65;;;;;;;19.86;46.18;97065.91;5029346;28;20124;-30
2022/05/05 05:17:25;;;;;;;6.43;4.05;;;;;;;19.81;46.25;97066.56;5029484;28;20030;-31
2022/05/05 05:19:50;;;;;;;5.40;4.22;;;;;;;19.76;46.28;97064.50;5014322;28;20029;-30
2022/05/05 05:22:16;;;;;;;5.55;4.25;;;;;;;19.83;45.99;97061.34;5014203;28;20456;-31
2022/05/05 05:24:41;;;;;;;6.47;3.90;;;;;;;19.79;46.21;97055.25;5014236;28;20461;-32
2022/05/05 05:27:07;;;;;;;6.82;4.10;;;;;;;19.85;46.02;97047.88;5014034;28;20026;-31
2022/05/05 05:29:32;;;;;;;6.07;4.68;;;;;;;19.78;46.24;97051.75;5014206;28;20373;-31
2022/05/05 05:31:58;;;;;;;8.82;4.47;;;;;;;19.76;46.51;97064.50;5013922;28;20072;-31
2022/05/05 05:34:23;;;;;;;9.02;4.57;;;;;;;19.75;46.33;97071.97;5013885;28;20021;-31
2022/05/05 05:36:49;;;;;;;7.03;4.72;;;;;;;19.76;46.59;97070.00;5013712;28;20036;-30
2022/05/05 05:39:17;;;;;;;7.80;5.35;;;;;;;19.77;46.45;97077.78;5013782;28;20468;-31
2022/05/05 05:41:43;;;;;;;11.38;5.82;;;;;;;19.80;46.43;97067.78;5014055;28;20037;-31
2022/05/05 05:44:08;;;;;;;11.68;5.07;;;;;;;19.76;46.34;97065.25;5013894;28;20026;-31
2022/05/05 05:46:34;;;;;;;11.50;5.63;;;;;;;19.81;46.25;97069.31;5013778;28;20041;-31
2022/05/05 05:48:59;;;;;;;7.32;5.72;;;;;;;19.80;46.21;97067.78;5013418;28;20132;-31
2022/05/05 05:51:25;;;;;;;6.85;4.50;;;;;;;19.78;46.09;97073.78;5011755;28;20764;-30
2022/05/05 05:53:51;;;;;;;6.78;5.68;;;;;;;19.79;46.18;97071.78;5013581;28;20036;-31
2022/05/05 05:56:17;;;;;;;7.70;5.72;;;;;;;19.80;46.35;97073.31;5013663;28;20083;-31
2022/05/05 05:58:43;;;;;;;8.13;5.97;;;;;;;19.77;46.36;97077.78;5013539;28;20109;-31
2022/05/05 06:01:09;;;;;;;8.40;5.93;;;;;;;19.74;46.15;97078.72;5013439;28;20742;-30
2022/05/05 06:06:19;;;;;;;10.25;6.43;;;;;;;19.78;46.45;97086.78;5013413;28;20049;-32
2022/05/05 06:08:44;;;;;;;7.50;6.00;;;;;;;19.76;46.42;97087.25;5013307;28;20026;-30
2022/05/05 06:11:11;;;;;;;9.95;6.07;;;;;;;19.75;46.69;97096.75;5012956;28;20029;-31
2022/05/05 06:13:37;;;;;;;9.80;5.95;;;;;;;19.75;46.59;97101.50;5013059;28;20026;-33
2022/05/05 06:16:04;;;;;;;7.85;6.13;;;;;;;19.73;46.44;97099.97;5012828;28;20030;-35
2022/05/05 06:18:30;;;;;;;10.02;6.30;;;;;;;19.73;46.50;97110.97;5012582;28;20030;-32
2022/05/05 06:20:56;;;;;;;7.45;5.45;;;;;;;19.76;46.38;97103.78;5012609;28;20014;-31
2022/05/05 06:23:22;;;;;;;6.07;5.40;;;;;;;19.72;46.63;97109.47;5012911;28;20369;-31
2022/05/05 06:25:47;;;;;;;8.40;5.95;;;;;;;19.80;46.33;97107.09;5011900;28;20026;-33
2022/05/05 06:28:13;;;;;;;7.25;5.63;;;;;;;19.73;46.71;97102.72;5009515;28;20419;-31
2022/05/05 06:30:38;;;;;;;7.85;5.90;;;;;;;19.68;46.60;97092.34;5011689;28;20053;-31
2022/05/05 06:33:04;;;;;;;6.15;5.55;;;;;;;19.72;46.66;97097.69;5011978;28;20034;-31
2022/05/05 06:35:29;;;;;;;7.53;5.57;;;;;;;19.68;46.84;97089.59;5012434;28;20038;-31
2022/05/05 06:37:55;;;;;;;6.82;5.22;;;;;;;19.69;46.83;97091.13;5012879;28;20033;-31
2022/05/05 06:40:20;;;;;;;6.80;5.55;;;;;;;19.77;46.49;97096.28;5012673;28;20353;-31
2022/05/05 06:42:48;;;;;;;7.15;5.47;;;;;;;19.69;46.60;97099.38;5012371;28;20093;-31
2022/05/05 06:45:14;;;;;;;7.40;6.10;;;;;;;19.78;46.73;97111.56;5012608;28;20033;-31
2022/05/05 06:47:40;;;;;;;7.13;5.80;;;;;;;19.75;46.63;97104.25;5012299;28;20022;-31
2022/05/05 06:50:07;;;;;;;6.95;5.47;;;;;;;19.77;46.62;97104.53;5027637;28;20049;-31
2022/05/05 06:52:33;;;;;;;7.85;5.88;;;;;;;19.79;46.53;97113.06;5010775;28;20124;-30
2022/05/05 06:55:00;;;;;;;6.72;5.40;;;;;;;19.76;46.51;97112.03;5027599;28;20057;-31
2022/05/05 06:57:26;;;;;;;6.95;5.65;;;;;;;19.70;46.59;97111.91;5012311;28;20034;-30
2022/05/05 06:59:52;;;;;;;9.75;6.22;;;;;;;19.69;46.74;97110.38;5012510;28;20092;-31
2022/05/05 07:02:18;;;;;;;6.03;5.35;;;;;;;19.75;46.42;97109.75;5012324;28;20468;-30
2022/05/05 07:07:28;;;;;;;6.88;6.13;;;;;;;19.71;46.49;97110.69;5012450;28;20131;-31
2022/05/05 07:12:37;;;;;;;8.10;5.93;;;;;;;19.72;46.46;97114.97;5012278;28;20037;-30
2022/05/05 07:15:03;;;;;;;5.88;5.03;;;;;;;19.72;46.27;97125.97;5012170;28;20025;-31
2022/05/05 07:17:29;;;;;;;8.15;5.90;;;;;;;19.74;46.45;97122.75;5011497;28;20026;-32
2022/05/05 07:19:54;;;;;;;8.40;6.18;;;;;;;19.78;46.31;97125.31;5012185;28;20033;-32
2022/05/05 07:22:20;;;;;;;11.55;6.45;;;;;;;19.70;46.45;97128.44;5012007;28;20546;-32
2022/05/05 07:24:46;;;;;;;6.63;5.53;;;;;;;19.72;46.52;97125.97;5011892;28;20068;-31
2022/05/05 07:27:12;;;;;;;6.53;5.75;;;;;;;19.72;46.29;97125.97;5010589;28;20400;-32
2022/05/05 07:29:37;;;;;;;7.05;5.85;;;;;;;19.67;46.47;97121.09;5026426;28;20017;-30
2022/05/05 07:32:04;;;;;;;9.15;5.78;;;;;;;19.66;46.13;97133.34;5010837;28;20026;-31
2022/05/05 07:34:30;;;;;;;7.70;5.93;;;;;;;19.69;46.11;97123.38;5011577;28;20530;-31
2022/05/05 07:36:56;;;;;;;8.05;5.60;;;;;;;19.75;46.16;97129.78;5011996;28;20117;-31
2022/05/05 07:39:22;;;;;;;8.07;5.85;;;;;;;19.67;46.38;97123.84;5010966;28;20026;-31
2022/05/05 07:41:48;;;;;;;8.02;5.78;;;;;;;19.72;46.04;97125.97;5011706;28;20476;-30
2022/05/05 07:44:15;;;;;;;8.57;5.97;;;;;;;19.67;46.34;97132.09;5011773;28;20070;-31
2022/05/05 07:46:41;;;;;;;6.90;5.15;;;;;;;19.64;46.48;97133.06;5011667;28;20037;-31
2022/05/05 07:49:07;;;;;;;6.75;5.47;;;;;;;19.69;46.13;97132.41;5010968;28;20041;-31
2022/05/05 07:51:33;;;;;;;6.05;5.15;;;;;;;19.69;46.34;97137.91;5008809;28;20044;-31
2022/05/05 07:56:44;;;;;;;6.60;5.43;;;;;;;19.67;46.29;97143.13;5012096;28;20511;-31
2022/05/05 07:59:10;;;;;;;6.65;4.90;;;;;;;19.70;46.22;97139.44;5011524;28;20026;-32
2022/05/05 08:01:36;;;;;;;6.28;4.68;;;;;;;19.70;46.05;97139.44;5011552;28;20408;-31
2022/05/05 08:04:02;;;;;;;7.88;5.18;;;;;;;19.70;46.14;97144.94;5010083;28;20038;-31
2022/05/05 08:06:27;;;;;;;5.68;5.13;;;;;;;19.66;46.19;97144.34;5011610;28;20064;-32
2022/05/05 08:08:53;;;;;;;5.93;5.05;;;;;;;19.65;46.29;97148.34;5011455;28;20065;-31
2022/05/05 08:11:18;;;;;;;6.93;5.40;;;;;;;19.70;46.14;97150.44;5011507;28;20444;-32
2022/05/05 08:13:44;;;;;;;8.30;4.93;;;;;;;19.70;46.16;97153.19;5011238;28;20335;-31
2022/05/05 08:16:10;;;;;;;6.93;5.45;;;;;;;19.69;46.02;97161.91;5007100;28;20032;-30
2022/05/05 08:18:38;;;;;;;7.10;5.15;;;;;;;19.65;46.27;97167.63;5013422;28;20510;-31
2022/05/05 08:21:09;;;;;;;6.63;5.28;;;;;;;19.69;46.23;97167.41;5013135;28;20014;-32
2022/05/05 08:23:34;;;;;;;5.88;4.82;;;;;;;19.61;46.19;97175.28;5013744;28;20392;-31
2022/05/05 08:28:43;;;;;;;9.02;6.22;;;;;;;19.62;46.48;97182.31;5013504;28;20033;-31
2022/05/05 08:31:12;;;;;;;16.40;8.27;;;;;;;19.56;46.49;97195.16;5012802;28;20026;-33
2022/05/05 08:33:38;;;;;;;16.50;7.82;;;;;;;19.63;46.27;97197.59;5013209;28;20032;-30
2022/05/05 08:36:06;;;;;;;15.38;7.38;;;;;;;19.63;46.42;97191.31;5013061;28;20468;-30
2022/05/05 08:38:32;;;;;;;15.13;6.85;;;;;;;19.62;46.55;97190.56;5028501;28;20468;-31
2022/05/05 08:40:57;;;;;;;12.80;6.68;;;;;;;19.63;46.65;97194.06;5012901;28;20056;-30
2022/05/05 08:43:23;;;;;;;9.75;6.43;;;;;;;19.63;46.50;97192.09;5015939;28;20025;-30
2022/05/05 08:45:50;;;;;;;10.85;6.28;;;;;;;19.65;46.53;97186.88;5016786;28;20099;-32
2022/05/05 08:48:16;;;;;;;13.48;6.78;;;;;;;19.67;46.39;97187.16;5016717;28;20050;-30
2022/05/05 08:50:46;;;;;;;11.25;6.18;;;;;;;19.65;46.82;97192.38;5016718;28;20021;-31
2022/05/05 08:53:15;;;;;;;10.23;6.25;;;;;;;19.62;46.96;97193.31;5017114;28;20391;-31
2022/05/05 08:55:44;;;;;;;12.00;6.68;;;;;;;19.62;47.22;97193.31;5016676;28;20028;-30
2022/05/05 08:58:09;;;;;;;13.65;7.40;;;;;;;19.65;46.91;97191.63;5016701;28;20448;-30
2022/05/05 09:00:36;;;;;;;14.27;8.00;;;;;;;19.59;47.21;97185.22;5016263;28;20029;-31
2022/05/05 09:03:04;;;;;;;20.40;8.57;;;;;;;19.61;47.58;97186.28;5016440;28;20026;-31
2022/05/05 09:05:45;;;;;;;17.83;8.93;;;;;;;19.63;47.50;97180.31;5016433;28;20441;-31
2022/05/05 09:08:27;;;;;;;20.98;8.40;;;;;;;19.65;47.51;97175.88;5015977;28;20030;-31
2022/05/05 09:10:54;;;;;;;17.15;9.38;;;;;;;19.64;47.55;97171.59;5016299;28;20034;-30
2022/05/05 09:13:23;;;;;;;16.75;8.77;;;;;;;19.64;47.55;97177.09;5015812;28;20093;-31
2022/05/05 09:15:49;;;;;;;19.65;9.30;;;;;;;19.61;47.83;97180.78;5015284;28;20034;-30
2022/05/05 09:18:20;;;;;;;18.35;8.82;;;;;;;19.30;48.29;97177.53;5016567;28;20108;-32
2022/05/05 09:20:47;;;;;;;22.42;9.85;;;;;;;18.51;52.20;97185.13;5031233;28;20041;-29
2022/05/05 09:23:29;;;;;;;21.05;9.10;;;;;;;19.00;50.72;97171.13;5015979;28;20061;-30
2022/05/05 09:25:55;;;;;;;19.30;9.75;;;;;;;19.30;49.43;97163.78;5016303;28;20033;-30
2022/05/05 09:28:28;;;;;;;20.63;9.25;;;;;;;19.36;49.37;97151.69;5016367;28;20068;-30
2022/05/05 09:30:54;;;;;;;15.50;9.73;;;;;;;19.42;49.24;97151.81;5016059;28;20028;-29
2022/05/05 09:33:37;;;;;;;16.83;8.85;;;;;;;19.43;49.31;97147.81;5015992;28;20109;-29
2022/05/05 09:36:04;;;;;;;15.10;8.40;;;;;;;19.42;49.33;97140.03;5015887;28;20034;-29
2022/05/05 09:38:51;;;;;;;13.90;8.48;;;;;;;19.43;49.31;97133.31;5015922;28;20068;-30
2022/05/05 09:41:20;;;;;;;17.80;8.88;;;;;;;19.45;49.34;97117.88;5015828;28;20077;-29
2022/05/05 09:43:46;;;;;;;12.55;8.43;;;;;;;19.45;49.21;97112.38;5015778;28;20476;-29
2022/05/05 09:46:26;;;;;;;14.38;7.97;;;;;;;19.45;49.39;97108.84;5015769;28;20108;-30
2022/05/05 09:48:52;;;;;;;12.95;7.57;;;;;;;19.43;49.55;97119.56;5015618;28;20046;-29
2022/05/05 09:51:18;;;;;;;15.05;9.10;;;;;;;19.42;49.49;97127.06;5015612;28;20445;-30
2022/05/05 09:59:42;;;;;;;14.30;8.45;;;;;;;19.42;49.70;97146.31;5013302;28;20172;-29
2022/05/05 10:05:15;;;;;;;9.80;6.25;;;;;;;19.45;49.79;97150.13;5013800;28;20067;-29
2022/05/05 10:07:44;;;;;;;12.20;7.38;;;;;;;19.43;49.86;97142.31;5013303;28;20059;-29
2022/05/05 10:10:11;;;;;;;8.63;6.18;;;;;;;19.44;49.99;97143.09;5013225;28;20026;-29
2022/05/05 10:12:39;;;;;;;9.70;6.40;;;;;;;19.46;49.99;97138.66;5013165;28;20034;-29
2022/05/05 10:15:05;;;;;;;11.65;6.40;;;;;;;19.42;50.32;97149.06;5013332;28;20072;-29
2022/05/05 10:17:34;;;;;;;11.32;5.88;;;;;;;19.44;50.34;97152.09;5009630;28;20113;-29
2022/05/05 10:20:00;;;;;;;10.20;6.15;;;;;;;19.43;50.27;97153.31;5011524;28;20056;-30
2022/05/05 10:22:50;;;;;;;10.73;6.65;;;;;;;19.43;50.60;97150.56;5013030;28;20488;-29
2022/05/05 10:25:22;;;;;;;12.07;6.05;;;;;;;19.46;50.88;97135.91;5013108;28;20045;-31
2022/05/05 10:27:48;;;;;;;11.70;7.03;;;;;;;19.43;50.86;97117.56;5012896;28;20037;-30
2022/05/05 10:30:16;;;;;;;10.93;6.20;;;;;;;19.35;51.14;97130.94;5012974;28;20441;-29
2022/05/05 10:32:41;;;;;;;12.07;7.13;;;;;;;19.31;51.73;97124.06;5009716;28;20480;-30
2022/05/05 10:35:08;;;;;;;11.38;6.80;;;;;;;19.27;52.27;97115.25;4995489;28;20068;-31
2022/05/05 10:37:38;;;;;;;12.82;7.15;;;;;;;19.28;52.58;97087.28;4995258;28;20076;-29
2022/05/05 10:40:06;;;;;;;9.35;5.80;;;;;;;19.29;52.52;97071.50;4995154;28;20101;-29
2022/05/05 10:42:44;;;;;;;9.18;6.07;;;;;;;19.29;52.61;97066.00;4995077;28;20094;-30
2022/05/05 10:45:30;;;;;;;9.15;6.53;;;;;;;19.24;52.73;97058.41;4995107;28;20026;-30
2022/05/05 10:47:58;;;;;;;11.82;7.03;;;;;;;19.06;53.49;97044.78;4994851;28;20046;-30
2022/05/05 10:50:42;;;;;;;10.10;6.78;;;;;;;19.09;53.54;97044.63;4995072;28;20030;-30
2022/05/05 10:53:29;;;;;;;10.27;7.05;;;;;;;19.29;53.02;97050.28;5010378;28;20072;-29
2022/05/05 10:55:55;;;;;;;11.23;6.68;;;;;;;19.32;52.93;97054.09;4994724;28;20519;-30
2022/05/05 10:58:54;;;;;;;10.60;6.10;;;;;;;19.39;52.51;97053.75;4994850;28;20034;-30
2022/05/05 11:01:20;;;;;;;9.02;6.28;;;;;;;19.26;53.34;97067.72;4994818;28;20028;-30
2022/05/05 11:04:28;;;;;;;8.70;6.63;;;;;;;19.31;52.72;97063.56;4994738;28;20109;-31
2022/05/05 11:07:30;;;;;;;13.43;6.90;;;;;;;19.37;53.04;97078.19;5009612;28;20041;-30
2022/05/05 11:09:57;;;;;;;9.55;6.28;;;;;;;19.40;52.73;97076.50;4994530;28;20130;-30
2022/05/05 11:12:23;;;;;;;9.70;7.30;;;;;;;19.23;52.91;97067.91;4994454;28;20033;-29
2022/05/05 11:23:26;;;;;;;9.73;6.25;;;;;;;19.39;52.69;97059.25;4994423;28;20033;-30
2022/05/05 11:25:54;;;;;;;8.88;5.78;;;;;;;19.40;52.50;97054.50;4994565;28;20022;-29
2022/05/05 11:28:20;;;;;;;7.80;6.22;;;;;;;19.29;52.77;97052.25;4993434;28;20030;-29
2022/05/05 11:30:46;;;;;;;7.15;5.72;;;;;;;19.36;52.29;97049.19;4994126;28;20500;-30
2022/05/05 11:33:11;;;;;;;7.35;5.85;;;;;;;19.36;52.17;97054.66;4994250;28;20049;-29
2022/05/05 11:35:37;;;;;;;7.40;5.68;;;;;;;19.36;52.39;97055.44;4994135;28;20026;-30
2022/05/05 11:38:08;;;;;;;8.75;5.75;;;;;;;19.38;52.43;97058.47;4993991;28;20080;-29
2022/05/05 11:40:35;;;;;;;9.50;6.15;;;;;;;19.16;52.95;97060.00;4994162;28;20030;-30
2022/05/05 11:45:53;;;;;;;7.22;5.80;;;;;;;19.18;53.05;97050.03;4994262;28;20053;-29
2022/05/05 11:48:19;;;;;;;9.75;6.10;;;;;;;19.30;52.58;97034.53;4993771;28;20509;-30
2022/05/05 11:50:45;;;;;;;9.98;6.50;;;;;;;19.37;52.44;97028.69;4994146;28;20477;-30
2022/05/05 11:53:17;;;;;;;8.80;6.07;;;;;;;19.24;52.76;97019.94;4994038;28;20030;-31
2022/05/05 11:55:45;;;;;;;10.02;6.90;;;;;;;19.10;53.48;97004.13;4994009;28;20428;-30
2022/05/05 12:04:01;;;;;;;8.63;6.43;;;;;;;18.82;53.65;96996.06;4994058;28;20049;-29
2022/05/05 12:06:27;;;;;;;;;;;;;;;19.13;52.72;96992.97;4994662;28;20026;-30
2022/05/05 12:08:55;;;;;;;10.32;5.82;;;;;;;19.32;52.42;96988.06;4994113;28;19909;-29
2022/05/05 12:11:20;;;;;;;8.00;5.90;;;;;;;19.22;52.76;96986.63;4993746;28;20026;-31
2022/05/05 12:13:47;;;;;;;6.38;5.15;;;;;;;19.17;52.46;96981.78;4993779;28;20029;-31
2022/05/05 12:16:12;;;;;;;7.35;5.00;;;;;;;19.18;52.53;96966.78;4993691;28;20054;-29
2022/05/05 12:18:52;;;;;;;8.50;5.78;;;;;;;19.05;52.62;96966.28;4997136;28;20058;-29
2022/05/05 12:21:24;;;;;;;7.65;5.13;;;;;;;19.11;52.40;96967.16;4997711;28;20023;-29
2022/05/05 12:24:00;;;;;;;8.95;5.22;;;;;;;19.27;51.69;96964.00;4997830;28;20037;-31
2022/05/05 12:26:44;;;;;;;6.07;4.75;;;;;;;18.92;52.30;96950.03;5012717;28;20038;-30